Rechercher aéroport 
image banner adimage banner adimage banner ad
image banner ad

84L - Norwalk Sheriff Station

Situé à Norwalk, United States

ICAO - 84L, IATA -

Données fournies par Airmate  

Information générale

Coordonnées: N33°54'55" W118°4'11"
Élévation : 101 feet MSL.
Variation magnétique : 14° East
Voir autres Aéroports à California

Données opérationnelles

Special qualification required
Heure actuelle UTC:
Heure actuelle locale:
Météo à : KFUL - Fullerton Muni ( 10 km )
METAR: KFUL 262153Z 18005KT 10SM FEW026 27/18 A2992 RMK AO2 SLP130 T02670183
Voir NOTAMs / SUP AIP / TFR affectant cet aéroport [VIEW]
Fréquences de communication: [VIEW]

Pistes:

Coordonnées de l'aéroport

Adresse: Norwalk United States

Vue satellite de 84L